Time;durP1;ratioP1;P1;durP2;ratioP2;P2;SDS_P1;SDS_P2;PMS_P1;PMS_P2;Temp;Humidity;BMP_temperature;BMP_pressure;BME280_temperature;BME280_humidity;BME280_pressure;Samples;Min_cycle;Max_cycle;Signal;HPM_P1;HPM_P2
2023/11/08 00:02:13;;;;;;;;;;;;;;;16.44;53.57;100919.47;5096421;28;1125;-53
2023/11/08 00:04:39;;;;;;;;;;;;;;;16.26;53.27;100918.97;5096506;28;1097;-49
2023/11/08 00:07:04;;;;;;;;;;;;;;;16.19;52.74;100918.53;5096266;28;1170;-51
2023/11/08 00:09:30;;;;;;;;;;;;;;;16.07;52.65;100911.41;5095967;28;1046;-45
2023/11/08 00:11:55;;;;;;;;;;;;;;;16.34;54.49;100921.06;5096588;28;1155;-49
2023/11/08 00:14:21;;;;;;;;;;;;;;;17.11;54.33;100917.47;5096544;28;1922;-50
2023/11/08 00:16:47;;;;;;;;;;;;;;;16.63;54.50;100910.22;5095860;28;1139;-46
2023/11/08 00:19:16;;;;;;;;;;;;;;;16.39;53.53;100903.88;5098544;28;1070;-51
2023/11/08 00:21:42;;;;;;;;;;;;;;;16.21;53.59;100895.41;5100258;28;1030;-46
2023/11/08 00:24:07;;;;;;;;;;;;;;;16.15;53.01;100890.47;5099555;28;1081;-49
2023/11/08 00:26:33;;;;;;;;;;;;;;;16.07;53.03;100893.69;5100302;28;1162;-48
2023/11/08 00:28:58;;;;;;;;;;;;;;;16.34;54.62;100897.19;5099967;28;1118;-50
2023/11/08 00:31:24;;;;;;;;;;;;;;;16.89;54.24;100894.22;5099417;28;1122;-48
2023/11/08 00:33:51;;;;;;;;;;;;;;;16.46;54.13;100877.75;5099750;28;1972;-46
2023/11/08 00:36:17;;;;;;;;;;;;;;;16.24;53.56;100868.63;5100617;28;1066;-47
2023/11/08 00:38:43;;;;;;;;;;;;;;;16.10;53.42;100866.94;5098055;28;1078;-52
2023/11/08 00:41:08;;;;;;;;;;;;;;;16.70;54.68;100871.63;5100106;28;1089;-51
2023/11/08 00:43:34;;;;;;;;;;;;;;;16.84;54.22;100861.81;5098083;28;1015;-54
2023/11/08 00:46:02;;;;;;;;;;;;;;;16.53;54.00;100868.38;5099711;28;1122;-53
2023/11/08 00:48:27;;;;;;;;;;;;;;;16.35;53.28;100857.25;5098282;28;1074;-50
2023/11/08 00:50:54;;;;;;;;;;;;;;;16.17;53.36;100846.13;5099330;28;1022;-50
2023/11/08 00:53:20;;;;;;;;;;;;;;;16.13;52.53;100847.31;5099460;28;1945;-51
2023/11/08 00:55:45;;;;;;;;;;;;;;;16.13;54.01;100853.44;5099553;28;1117;-49
2023/11/08 00:58:11;;;;;;;;;;;;;;;17.09;54.07;100852.09;5099637;28;1217;-49
2023/11/08 01:00:36;;;;;;;;;;;;;;;16.68;54.04;100847.00;5098904;28;1073;-50
2023/11/08 01:03:02;;;;;;;;;;;;;;;16.43;54.04;100845.25;5098437;28;1062;-51
2023/11/08 01:05:28;;;;;;;;;;;;;;;16.25;53.17;100837.59;5099620;28;1058;-53
2023/11/08 01:07:54;;;;;;;;;;;;;;;16.18;52.89;100839.00;5098960;28;1089;-52
2023/11/08 01:10:21;;;;;;;;;;;;;;;16.13;53.55;100836.69;5097965;28;1075;-51
2023/11/08 01:12:47;;;;;;;;;;;;;;;17.07;54.23;100825.59;5099369;28;1905;-52
2023/11/08 01:15:13;;;;;;;;;;;;;;;16.66;54.06;100822.34;5099161;28;995;-50
2023/11/08 01:17:38;;;;;;;;;;;;;;;16.38;53.86;100819.84;5099540;28;1173;-47
2023/11/08 01:20:05;;;;;;;;;;;;;;;16.21;53.66;100810.47;5097705;28;1542;-49
2023/11/08 01:22:30;;;;;;;;;;;;;;;16.11;52.91;100798.78;5097053;28;1050;-47
2023/11/08 01:24:56;;;;;;;;;;;;;;;16.10;53.47;100802.41;5099086;28;1059;-50
2023/11/08 01:27:21;;;;;;;;;;;;;;;16.98;54.24;100800.53;5099710;28;1039;-55
2023/11/08 01:29:47;;;;;;;;;;;;;;;16.62;54.10;100794.31;5097713;28;1093;-48
2023/11/08 01:32:12;;;;;;;;;;;;;;;16.36;53.88;100791.72;5131223;27;1029;-49
2023/11/08 01:34:38;;;;;;;;;;;;;;;16.24;53.19;100786.34;5098942;28;1897;-48
2023/11/08 01:37:04;;;;;;;;;;;;;;;16.11;53.20;100786.38;5098720;28;1155;-51
2023/11/08 01:39:30;;;;;;;;;;;;;;;16.01;53.12;100785.31;5099077;28;1050;-51
2023/11/08 01:41:55;;;;;;;;;;;;;;;16.99;54.43;100796.06;5098304;28;1170;-52
2023/11/08 01:44:22;;;;;;;;;;;;;;;16.89;54.13;100799.44;5098439;28;1018;-50
2023/11/08 01:46:52;;;;;;;;;;;;;;;16.54;53.81;100792.22;5098592;28;1233;-50
2023/11/08 01:49:18;;;;;;;;;;;;;;;16.33;53.18;100787.47;5098885;28;1153;-52
2023/11/08 01:51:44;;;;;;;;;;;;;;;16.23;53.12;100792.59;5097964;28;1109;-52
2023/11/08 01:54:09;;;;;;;;;;;;;;;16.15;52.67;100779.03;5098024;28;1909;-50
2023/11/08 01:56:35;;;;;;;;;;;;;;;16.02;52.62;100776.38;5079823;28;1020;-51
2023/11/08 01:59:01;;;;;;;;;;;;;;;16.65;54.79;100775.50;5114001;28;1126;-48
2023/11/08 02:01:26;;;;;;;;;;;;;;;16.96;54.01;100764.41;5076781;28;1123;-51
2023/11/08 02:03:54;;;;;;;;;;;;;;;16.57;53.86;100761.91;5121439;27;1116;-45
2023/11/08 02:06:21;;;;;;;;;;;;;;;16.33;53.73;100762.75;5096932;28;1105;-50
2023/11/08 02:08:47;;;;;;;;;;;;;;;16.15;53.50;100766.59;5098158;28;1131;-51
2023/11/08 02:11:12;;;;;;;;;;;;;;;15.38;52.80;100630.44;5092114;28;1295;-52
2023/11/08 02:13:38;;;;;;;;;;;;;;;16.09;53.56;100760.88;5084714;28;1902;-52
2023/11/08 02:16:05;;;;;;;;;;;;;;;17.07;54.85;100753.81;5095467;28;1312;-50
2023/11/08 02:18:33;;;;;;;;;;;;;;;16.68;54.24;100759.34;5095200;28;1360;-54
2023/11/08 02:21:01;;;;;;;;;;;;;;;16.43;53.82;100760.28;5094886;28;1039;-52
2023/11/08 02:23:27;;;;;;;;;;;;;;;16.24;53.71;100737.72;5096067;28;1344;-52
2023/11/08 02:25:53;;;;;;;;;;;;;;;16.14;53.03;100732.22;5091480;28;1177;-50
2023/11/08 02:28:20;;;;;;;;;;;;;;;16.07;52.61;100726.50;5092977;28;1006;-53
2023/11/08 02:30:55;;;;;;;;;;;;;;;15.94;52.59;100718.53;5097291;28;1193;-49
2023/11/08 02:33:21;;;;;;;;;;;;;;;16.85;54.96;100714.75;5095723;28;1905;-50
2023/11/08 02:35:47;;;;;;;;;;;;;;;16.99;54.01;100725.19;5097695;28;1054;-50
2023/11/08 02:38:14;;;;;;;;;;;;;;;16.55;54.00;100727.50;5097320;28;1069;-53
2023/11/08 02:40:42;;;;;;;;;;;;;;;16.39;53.38;100739.28;5097300;28;1010;-53
2023/11/08 02:43:08;;;;;;;;;;;;;;;16.19;53.15;100745.16;5096314;28;1043;-56
2023/11/08 02:45:33;;;;;;;;;;;;;;;16.68;55.15;100748.72;5095387;28;920;-55
2023/11/08 02:48:02;;;;;;;;;;;;;;;16.84;54.18;100760.84;5097439;28;1213;-53
2023/11/08 02:50:28;;;;;;;;;;;;;;;16.52;53.88;100741.00;5097848;28;1152;-51
2023/11/08 02:52:54;;;;;;;;;;;;;;;16.32;53.40;100748.63;5095758;28;1971;-50
2023/11/08 02:55:19;;;;;;;;;;;;;;;16.19;53.06;100731.88;5097850;28;995;-52
2023/11/08 02:57:45;;;;;;;;;;;;;;;16.14;53.12;100729.56;5095901;28;1043;-51
2023/11/08 03:00:11;;;;;;;;;;;;;;;17.02;54.45;100721.44;5094932;28;1554;-53
2023/11/08 03:02:39;;;;;;;;;;;;;;;16.70;54.12;100735.34;5094542;28;1042;-48
2023/11/08 03:05:05;;;;;;;;;;;;;;;16.41;53.95;100744.47;5098989;28;1375;-52
2023/11/08 03:07:31;;;;;;;;;;;;;;;16.26;53.23;100743.75;5098677;28;1275;-50
2023/11/08 03:09:56;;;;;;;;;;;;;;;16.14;53.15;100738.38;5091728;28;1063;-52
2023/11/08 03:12:22;;;;;;;;;;;;;;;16.08;52.57;100730.84;5095614;28;1023;-51
2023/11/08 03:14:47;;;;;;;;;;;;;;;16.00;52.73;100725.22;5129064;27;1921;-52
2023/11/08 03:17:13;;;;;;;;;;;;;;;16.72;55.07;100718.31;5097422;28;1141;-51
2023/11/08 03:19:40;;;;;;;;;;;;;;;17.00;54.00;100728.66;5096645;28;1207;-51
2023/11/08 03:22:06;;;;;;;;;;;;;;;16.55;54.15;100734.66;5096551;28;836;-49
2023/11/08 03:24:32;;;;;;;;;;;;;;;16.34;53.48;100737.88;5096685;28;1116;-50
2023/11/08 03:26:57;;;;;;;;;;;;;;;16.19;53.35;100724.78;5096799;28;1144;-55
2023/11/08 03:29:23;;;;;;;;;;;;;;;16.13;52.75;100715.44;5090597;28;1277;-53
2023/11/08 03:31:49;;;;;;;;;;;;;;;16.06;52.68;100716.84;5089720;28;968;-53
2023/11/08 03:34:14;;;;;;;;;;;;;;;16.81;54.94;100713.28;5096498;28;1976;-53
2023/11/08 03:36:42;;;;;;;;;;;;;;;16.74;54.58;100705.75;5095850;28;1113;-53
2023/11/08 03:39:09;;;;;;;;;;;;;;;16.45;54.21;100713.22;5097469;28;1074;-51
2023/11/08 03:41:35;;;;;;;;;;;;;;;16.29;53.64;100709.03;5097212;28;1106;-49
2023/11/08 03:44:00;;;;;;;;;;;;;;;16.18;53.08;100706.31;5096508;28;1042;-49
2023/11/08 03:46:26;;;;;;;;;;;;;;;16.48;55.02;100707.69;5095953;28;848;-45
2023/11/08 03:48:52;;;;;;;;;;;;;;;17.18;54.07;100696.38;5096342;28;1043;-45
2023/11/08 03:51:17;;;;;;;;;;;;;;;16.67;54.24;100683.25;5096565;28;1038;-45
2023/11/08 03:53:43;;;;;;;;;;;;;;;16.38;53.46;100689.75;5083915;28;1913;-40
2023/11/08 03:56:10;;;;;;;;;;;;;;;16.27;53.08;100690.56;5089566;28;1378;-48
2023/11/08 03:58:36;;;;;;;;;;;;;;;16.12;52.96;100695.19;5086458;28;1725;-43
2023/11/08 04:01:03;;;;;;;;;;;;;;;16.07;52.64;100701.75;5090355;28;1315;-46
2023/11/08 04:03:32;;;;;;;;;;;;;;;15.99;52.41;100713.78;5093400;28;1294;-46
2023/11/08 04:05:57;;;;;;;;;;;;;;;16.92;54.88;100707.13;5092023;28;881;-42
2023/11/08 04:08:23;;;;;;;;;;;;;;;17.02;54.27;100702.84;5100759;28;1102;-46
2023/11/08 04:10:49;;;;;;;;;;;;;;;16.52;54.06;100696.72;5093315;28;1004;-48
2023/11/08 04:13:15;;;;;;;;;;;;;;;16.34;53.81;100708.69;5099911;28;1913;-46
2023/11/08 04:15:40;;;;;;;;;;;;;;;16.19;53.37;100695.59;5100525;28;1090;-42
2023/11/08 04:18:06;;;;;;;;;;;;;;;16.06;53.33;100690.31;5099420;28;1088;-44
2023/11/08 04:20:31;;;;;;;;;;;;;;;16.97;55.30;100694.34;5099978;28;1034;-48
2023/11/08 04:22:57;;;;;;;;;;;;;;;16.69;54.42;100685.81;5100280;28;894;-43
2023/11/08 04:25:22;;;;;;;;;;;;;;;16.43;54.01;100692.09;5100428;28;1120;-49
2023/11/08 04:27:48;;;;;;;;;;;;;;;16.22;53.74;100697.16;5086359;28;963;-44
2023/11/08 04:30:13;;;;;;;;;;;;;;;16.12;53.12;100697.81;5100313;28;1137;-48
2023/11/08 04:32:40;;;;;;;;;;;;;;;16.06;53.16;100705.38;5100181;28;1162;-48
2023/11/08 04:35:05;;;;;;;;;;;;;;;15.94;52.92;100707.91;5099860;28;1922;-44
2023/11/08 04:37:31;;;;;;;;;;;;;;;16.50;55.24;100703.94;5099522;28;999;-48
2023/11/08 04:39:57;;;;;;;;;;;;;;;16.71;54.86;100695.38;5099832;28;1173;-49
2023/11/08 04:42:22;;;;;;;;;;;;;;;16.37;54.38;100705.81;5099326;28;1351;-48
2023/11/08 04:44:48;;;;;;;;;;;;;;;16.21;53.82;100701.63;5092457;28;1418;-46
2023/11/08 04:47:18;;;;;;;;;;;;;;;16.03;53.44;100704.63;5098927;28;1109;-45
2023/11/08 04:49:44;;;;;;;;;;;;;;;16.16;54.68;100707.25;5093717;28;1470;-49
2023/11/08 04:52:10;;;;;;;;;;;;;;;17.06;54.57;100700.78;5099933;28;1307;-47
2023/11/08 04:54:36;;;;;;;;;;;;;;;16.98;54.53;100698.72;5104900;28;1969;-47
2023/11/08 04:57:02;;;;;;;;;;;;;;;16.45;54.13;100702.63;5097833;28;1089;-50
2023/11/08 04:59:27;;;;;;;;;;;;;;;16.25;53.56;100700.44;5098363;28;857;-46
2023/11/08 05:01:53;;;;;;;;;;;;;;;16.13;53.36;100691.56;5099817;28;1054;-50
2023/11/08 05:04:18;;;;;;;;;;;;;;;16.04;52.81;100686.91;5098327;28;1106;-52
2023/11/08 05:06:44;;;;;;;;;;;;;;;15.95;53.22;100695.50;5099277;28;1034;-48
2023/11/08 05:09:09;;;;;;;;;;;;;;;16.84;55.54;100697.94;5099106;28;1089;-47
2023/11/08 05:11:35;;;;;;;;;;;;;;;16.83;54.99;100693.59;5091739;28;1215;-52
2023/11/08 05:14:03;;;;;;;;;;;;;;;16.50;54.37;100689.81;5082397;28;1906;-49
2023/11/08 05:16:28;;;;;;;;;;;;;;;16.30;53.53;100684.16;5090133;28;1082;-48
2023/11/08 05:18:54;;;;;;;;;;;;;;;16.18;53.42;100685.94;5078521;28;1086;-49
2023/11/08 05:21:23;;;;;;;;;;;;;;;16.10;53.13;100678.50;5078528;28;1134;-49
2023/11/08 05:23:48;;;;;;;;;;;;;;;15.96;52.95;100673.31;5075076;28;1051;-46
2023/11/08 05:26:14;;;;;;;;;;;;;;;16.81;55.63;100674.28;5078796;28;1098;-51
2023/11/08 05:28:39;;;;;;;;;;;;;;;16.73;54.84;100666.03;5078309;28;1114;-49
2023/11/08 05:31:05;;;;;;;;;;;;;;;16.42;54.81;100674.47;5078831;28;1006;-50
2023/11/08 05:33:30;;;;;;;;;;;;;;;17.18;53.45;100670.66;5078085;28;1902;-51
2023/11/08 05:35:56;;;;;;;;;;;;;;;15.86;54.08;100681.09;5078438;28;1085;-50
2023/11/08 05:38:22;;;;;;;;;;;;;;;15.81;53.21;100689.38;5107414;28;1058;-44
2023/11/08 05:40:47;;;;;;;;;;;;;;;16.25;54.62;100681.84;5078230;28;1146;-51
2023/11/08 05:43:13;;;;;;;;;;;;;;;15.93;52.09;100686.81;5078248;28;1073;-42
2023/11/08 05:45:38;;;;;;;;;;;;;;;15.59;50.68;100682.94;5078376;28;1058;-47
2023/11/08 05:48:04;;;;;;;;;;;;;;;15.50;50.01;100681.75;5077977;28;1343;-46
2023/11/08 05:50:30;;;;;;;;;;;;;;;16.61;53.44;100678.41;5077938;28;1087;-49
2023/11/08 05:52:55;;;;;;;;;;;;;;;15.94;52.22;100680.53;5077941;28;1909;-48
2023/11/08 05:55:21;;;;;;;;;;;;;;;16.12;49.59;100692.53;5078307;28;999;-45
2023/11/08 05:57:46;;;;;;;;;;;;;;;16.05;48.48;100693.91;5075175;28;1026;-45
2023/11/08 06:00:14;;;;;;;;;;;;;;;15.91;48.05;100676.31;5077691;28;1031;-50
2023/11/08 06:02:39;;;;;;;;;;;;;;;15.79;47.48;100673.56;5067894;28;1118;-47
2023/11/08 06:05:05;;;;;;;;;;;;;;;15.71;46.93;100667.97;5070152;28;1277;-47
2023/11/08 06:07:30;;;;;;;;;;;;;;;15.66;46.80;100680.69;5077482;28;1360;-47
2023/11/08 06:09:57;;;;;;;;;;;;;;;15.63;46.25;100691.53;5070941;28;1173;-49
2023/11/08 06:12:24;;;;;;;;;;;;;;;14.68;46.41;100550.44;5090951;28;1054;-49
2023/11/08 06:14:50;;;;;;;;;;;;;;;15.51;46.02;100679.97;5096691;28;1925;-49
2023/11/08 06:17:15;;;;;;;;;;;;;;;15.48;45.53;100678.34;5096912;28;1332;-48
2023/11/08 06:19:41;;;;;;;;;;;;;;;15.34;45.69;100675.81;5097305;28;1078;-48
2023/11/08 06:22:06;;;;;;;;;;;;;;;15.36;45.51;100696.00;5097459;28;1127;-47
2023/11/08 06:24:32;;;;;;;;;;;;;;;15.40;45.51;100691.28;5091635;28;1336;-50
2023/11/08 06:27:00;;;;;;;;;;;;;;;15.33;45.20;100698.81;5084867;28;1359;-48
2023/11/08 06:29:26;;;;;;;;;;;;;;;15.27;45.13;100692.16;5090451;28;1147;-48
2023/11/08 06:31:51;;;;;;;;;;;;;;;15.58;46.39;100693.66;5097477;28;1142;-46
2023/11/08 06:34:17;;;;;;;;;;;;;;;16.33;48.62;100694.56;5117260;27;1980;-43
2023/11/08 06:36:42;;;;;;;;;;;;;;;15.77;48.29;100691.41;5085326;28;1014;-43
2023/11/08 06:39:12;;;;;;;;;;;;;;;15.62;47.65;100705.72;5097404;28;1038;-43
2023/11/08 06:41:38;;;;;;;;;;;;;;;15.57;46.82;100694.59;5083923;28;1141;-43
2023/11/08 06:44:05;;;;;;;;;;;;;;;15.59;46.13;100692.69;5097504;28;1308;-45
2023/11/08 06:46:30;;;;;;;;;;;;;;;15.47;45.79;100686.41;5097185;28;1351;-42
2023/11/08 06:48:57;;;;;;;;;;;;;;;15.47;45.28;100691.72;5097116;28;1194;-45
2023/11/08 06:51:23;;;;;;;;;;;;;;;15.33;45.39;100693.53;5097118;28;1379;-43
2023/11/08 06:53:49;;;;;;;;;;;;;;;15.85;46.94;100692.66;5097272;28;1910;-43
2023/11/08 06:56:15;;;;;;;;;;;;;;;16.05;47.97;100695.72;5096787;28;1146;-51
2023/11/08 06:58:40;;;;;;;;;;;;;;;15.81;47.15;100689.38;5096753;28;1380;-47
2023/11/08 07:01:07;;;;;;;;;;;;;;;15.66;46.34;100686.81;5096798;28;1023;-48
2023/11/08 07:03:33;;;;;;;;;;;;;;;15.63;45.93;100684.41;5096196;28;1058;-54
2023/11/08 07:05:59;;;;;;;;;;;;;;;15.50;45.75;100679.09;5097093;28;1142;-48
2023/11/08 07:08:24;;;;;;;;;;;;;;;15.47;45.42;100671.38;5096742;28;1213;-49
2023/11/08 07:10:53;;;;;;;;;;;;;;;15.39;45.27;100656.00;5094617;28;1245;-50
2023/11/08 07:13:18;;;;;;;;;;;;;;;15.34;45.00;100658.13;5093911;28;1906;-49
2023/11/08 07:15:44;;;;;;;;;;;;;;;15.34;44.66;100658.13;5083421;28;1203;-46
2023/11/08 07:18:13;;;;;;;;;;;;;;;15.30;44.55;100652.19;5088689;28;1137;-48
2023/11/08 07:20:39;;;;;;;;;;;;;;;15.34;44.67;100649.31;5088211;28;1403;-47
2023/11/08 07:23:04;;;;;;;;;;;;;;;16.61;47.91;100638.59;5085688;28;1355;-50
2023/11/08 07:25:32;;;;;;;;;;;;;;;15.97;47.96;100635.22;5095947;28;1168;-48
2023/11/08 07:27:58;;;;;;;;;;;;;;;15.81;47.12;100646.09;5085568;28;1156;-49
2023/11/08 07:30:23;;;;;;;;;;;;;;;15.67;46.16;100640.81;5096489;28;1141;-47
2023/11/08 07:32:49;;;;;;;;;;;;;;;15.62;45.93;100632.34;5086761;28;1902;-47
2023/11/08 07:35:14;;;;;;;;;;;;;;;15.54;45.63;100614.31;5094427;28;1097;-44
2023/11/08 07:37:40;;;;;;;;;;;;;;;16.51;48.10;100604.75;5096153;28;1268;-46
2023/11/08 07:40:06;;;;;;;;;;;;;;;16.10;48.39;100604.19;5085370;28;1308;-50
2023/11/08 07:42:32;;;;;;;;;;;;;;;15.86;47.43;100604.16;5084779;28;1347;-51
2023/11/08 07:44:59;;;;;;;;;;;;;;;15.80;46.24;100629.31;5094704;28;1355;-47
2023/11/08 07:47:24;;;;;;;;;;;;;;;15.73;46.05;100636.84;5096375;28;1144;-49
2023/11/08 07:49:50;;;;;;;;;;;;;;;15.66;45.59;100647.06;5090337;28;1394;-46
2023/11/08 07:52:15;;;;;;;;;;;;;;;15.62;45.05;100652.69;5094612;28;1065;-51
2023/11/08 07:54:41;;;;;;;;;;;;;;;15.54;45.30;100650.59;5095160;28;1901;-49
2023/11/08 07:57:06;;;;;;;;;;;;;;;15.51;45.05;100645.50;5096050;28;1043;-51
2023/11/08 07:59:32;;;;;;;;;;;;;;;15.49;44.70;100632.34;5095618;28;1054;-47
2023/11/08 08:01:58;;;;;;;;;;;;;;;15.46;44.74;100613.16;5095592;28;1062;-45
2023/11/08 08:04:25;;;;;;;;;;;;;;;15.45;44.50;100619.44;5097436;28;1077;-51
2023/11/08 08:06:51;;;;;;;;;;;;;;;15.35;44.42;100627.19;5097182;28;1033;-46
2023/11/08 08:09:17;;;;;;;;;;;;;;;15.35;44.71;100613.94;5096183;28;1058;-51
2023/11/08 08:11:43;;;;;;;;;;;;;;;15.29;44.55;100609.88;5095735;28;1542;-50
2023/11/08 08:14:09;;;;;;;;;;;;;;;15.26;44.23;100603.00;5095578;28;2011;-46
2023/11/08 08:16:35;;;;;;;;;;;;;;;15.60;45.69;100599.75;5095098;28;1136;-50
2023/11/08 08:19:01;;;;;;;;;;;;;;;16.37;47.41;100604.94;5094056;28;1486;-49
2023/11/08 08:21:26;;;;;;;;;;;;;;;15.87;47.21;100592.59;5083826;28;1098;-49
2023/11/08 08:23:54;;;;;;;;;;;;;;;15.67;46.55;100606.34;5095979;28;1113;-51
2023/11/08 08:26:19;;;;;;;;;;;;;;;15.62;46.25;100604.97;5095898;28;1129;-51
2023/11/08 08:28:45;;;;;;;;;;;;;;;16.21;47.77;100597.25;5095971;28;1126;-51
2023/11/08 08:31:11;;;;;;;;;;;;;;;16.01;47.42;100616.34;5096345;28;1117;-48
2023/11/08 08:33:37;;;;;;;;;;;;;;;15.85;46.83;100608.59;5095771;28;1972;-50
2023/11/08 08:36:02;;;;;;;;;;;;;;;15.74;46.48;100606.75;5095678;28;863;-45
2023/11/08 08:38:29;;;;;;;;;;;;;;;15.71;45.58;100614.94;5096439;28;1015;-50
2023/11/08 08:40:55;;;;;;;;;;;;;;;15.63;45.53;100610.16;5099554;28;1089;-52
2023/11/08 08:43:20;;;;;;;;;;;;;;;15.62;45.16;100619.06;5099961;28;1218;-50
2023/11/08 08:45:47;;;;;;;;;;;;;;;15.54;45.25;100621.41;5099704;28;1037;-49
2023/11/08 08:48:12;;;;;;;;;;;;;;;15.53;44.88;100617.91;5098986;28;1102;-49
2023/11/08 08:50:39;;;;;;;;;;;;;;;15.46;44.56;100616.66;5099409;28;1074;-45
2023/11/08 08:53:04;;;;;;;;;;;;;;;15.46;44.54;100607.84;5098150;28;1901;-50
2023/11/08 08:55:30;;;;;;;;;;;;;;;15.40;44.41;100595.88;5088324;28;1168;-50
2023/11/08 08:57:55;;;;;;;;;;;;;;;16.58;47.57;100596.31;5094411;28;1181;-47
2023/11/08 09:00:23;;;;;;;;;;;;;;;16.35;47.96;100601.56;5089183;28;1080;-50
2023/11/08 09:02:48;;;;;;;;;;;;;;;15.99;47.66;100599.69;5095745;28;1414;-46
2023/11/08 09:05:14;;;;;;;;;;;;;;;15.83;46.54;100597.25;5099108;28;1185;-50
2023/11/08 09:07:39;;;;;;;;;;;;;;;15.85;45.90;100583.91;5098681;28;1441;-47
2023/11/08 09:10:05;;;;;;;;;;;;;;;15.75;45.53;100581.91;5099079;28;1154;-47
2023/11/08 09:12:31;;;;;;;;;;;;;;;15.64;45.38;100579.19;5096057;28;1390;-50
2023/11/08 09:14:56;;;;;;;;;;;;;;;15.72;45.21;100571.53;5099103;28;1925;-42
2023/11/08 09:17:23;;;;;;;;;;;;;;;16.06;46.87;100572.69;5096941;28;1355;-47
2023/11/08 09:19:49;;;;;;;;;;;;;;;16.22;47.39;100569.75;5099531;28;1386;-46
2023/11/08 09:22:15;;;;;;;;;;;;;;;16.00;46.90;100560.72;5093715;28;1217;-45
2023/11/08 09:24:41;;;;;;;;;;;;;;;15.93;46.44;100559.47;5098519;28;1433;-47
2023/11/08 09:27:06;;;;;;;;;;;;;;;15.77;45.62;100558.78;5098416;28;1397;-48
2023/11/08 09:29:33;;;;;;;;;;;;;;;15.75;45.20;100550.06;5097552;28;1422;-47
2023/11/08 09:31:59;;;;;;;;;;;;;;;15.69;45.34;100549.69;5095597;28;1292;-49
2023/11/08 09:34:24;;;;;;;;;;;;;;;15.68;44.80;100543.53;5095647;28;1992;-47
2023/11/08 09:36:50;;;;;;;;;;;;;;;15.61;44.80;100547.59;5094770;28;1133;-46
2023/11/08 09:39:16;;;;;;;;;;;;;;;15.56;44.75;100542.63;5095733;28;1429;-44
2023/11/08 09:41:44;;;;;;;;;;;;;;;16.46;46.77;100543.19;5084783;28;1433;-47
2023/11/08 09:44:11;;;;;;;;;;;;;;;16.00;46.97;100523.56;5085921;28;1114;-49
2023/11/08 09:46:37;;;;;;;;;;;;;;;15.90;46.27;100526.88;5097682;28;1094;-46
2023/11/08 09:49:03;;;;;;;;;;;;;;;15.80;45.94;100528.53;5122988;27;1093;-49
2023/11/08 09:51:28;;;;;;;;;;;;;;;15.69;45.50;100521.38;5096440;28;1312;-46
2023/11/08 09:53:54;;;;;;;;;;;;;;;15.60;45.13;100506.97;5098084;28;1909;-47
2023/11/08 09:56:20;;;;;;;;;;;;;;;15.69;45.23;100512.56;5098604;28;1309;-44
2023/11/08 09:58:45;;;;;;;;;;;;;;;15.63;44.93;100506.72;5098261;28;1316;-49
2023/11/08 10:01:13;;;;;;;;;;;;;;;15.62;44.70;100499.75;5098014;28;892;-49
2023/11/08 10:03:41;;;;;;;;;;;;;;;15.68;44.32;100506.41;5096677;28;1069;-47
2023/11/08 10:06:07;;;;;;;;;;;;;;;15.63;44.57;100492.66;5090087;28;1011;-47
2023/11/08 10:08:33;;;;;;;;;;;;;;;15.55;44.86;100487.88;5090209;28;1028;-45
2023/11/08 10:10:59;;;;;;;;;;;;;;;16.50;47.08;100501.28;5096352;28;1110;-44
2023/11/08 10:13:39;;;;;;;;;;;;;;;16.01;46.75;100499.63;5129832;27;1983;-48
2023/11/08 10:16:05;;;;;;;;;;;;;;;15.93;46.38;100495.81;5088297;28;1154;-46
2023/11/08 10:18:30;;;;;;;;;;;;;;;15.78;45.91;100495.97;5097723;28;1226;-48
2023/11/08 10:21:02;;;;;;;;;;;;;;;15.74;45.44;100487.41;5096863;28;1063;-50
2023/11/08 10:23:28;;;;;;;;;;;;;;;15.70;44.84;100485.91;5083539;28;1128;-46
2023/11/08 10:26:11;;;;;;;;;;;;;;;15.64;44.95;100481.94;5097193;28;903;-46
2023/11/08 10:28:55;;;;;;;;;;;;;;;15.49;45.18;100477.75;5097729;28;1143;-48
2023/11/08 10:31:26;;;;;;;;;;;;;;;15.95;46.11;100470.84;5098029;28;1264;-50
2023/11/08 10:33:56;;;;;;;;;;;;;;;16.22;46.71;100463.59;5097523;28;1948;-48
2023/11/08 10:36:28;;;;;;;;;;;;;;;15.76;46.75;100468.72;5084073;28;1110;-47
2023/11/08 10:38:53;;;;;;;;;;;;;;;15.77;46.01;100465.94;5096879;28;1022;-46
2023/11/08 10:41:19;;;;;;;;;;;;;;;15.77;45.46;100465.09;5129969;27;1094;-45
2023/11/08 10:43:45;;;;;;;;;;;;;;;15.70;45.44;100463.88;5096716;28;1086;-47
2023/11/08 10:46:10;;;;;;;;;;;;;;;15.61;45.21;100468.03;5096860;28;991;-46
2023/11/08 10:48:36;;;;;;;;;;;;;;;15.66;44.59;100465.91;5095347;28;1304;-48
2023/11/08 10:51:02;;;;;;;;;;;;;;;15.55;44.79;100456.06;5084170;28;1054;-51
2023/11/08 10:53:28;;;;;;;;;;;;;;;16.39;46.44;100459.66;5093333;28;1917;-47
2023/11/08 10:55:54;;;;;;;;;;;;;;;15.94;46.90;100439.13;5096734;28;1078;-51
2023/11/08 10:58:19;;;;;;;;;;;;;;;15.88;45.98;100459.00;5122950;27;1149;-45
2023/11/08 11:00:45;;;;;;;;;;;;;;;15.82;45.39;100456.78;5094804;28;1229;-48
2023/11/08 11:03:10;;;;;;;;;;;;;;;15.74;45.44;100467.97;5096360;28;1011;-47
2023/11/08 11:05:36;;;;;;;;;;;;;;;15.70;45.29;100467.34;5129081;27;1030;-46
2023/11/08 11:08:03;;;;;;;;;;;;;;;15.71;45.02;100463.75;5096439;28;1303;-49
2023/11/08 11:10:29;;;;;;;;;;;;;;;15.67;45.28;100444.56;5096959;28;1122;-47
2023/11/08 11:12:57;;;;;;;;;;;;;;;15.64;45.08;100443.94;5095976;28;1117;-44
2023/11/08 11:15:43;;;;;;;;;;;;;;;15.64;44.88;100450.09;5096337;28;1142;-46
2023/11/08 11:18:10;;;;;;;;;;;;;;;15.61;44.91;100453.00;5092875;28;1332;-43
2023/11/08 11:20:37;;;;;;;;;;;;;;;15.62;44.72;100449.38;5129494;27;1023;-43
2023/11/08 11:23:17;;;;;;;;;;;;;;;15.57;44.71;100440.03;5129475;27;1038;-45
2023/11/08 11:25:47;;;;;;;;;;;;;;;15.50;44.64;100455.56;5128894;27;1167;-49
2023/11/08 11:28:12;;;;;;;;;;;;;;;15.51;44.49;100450.19;5095700;28;1042;-47
2023/11/08 11:30:38;;;;;;;;;;;;;;;15.51;44.40;100457.28;5096126;28;1209;-46
2023/11/08 11:33:05;;;;;;;;;;;;;;;15.47;44.26;100447.84;5096461;28;1902;-42
2023/11/08 11:35:30;;;;;;;;;;;;;;;15.47;44.64;100454.00;5096778;28;1097;-46
2023/11/08 11:38:13;;;;;;;;;;;;;;;15.41;44.59;100452.63;5096113;28;1174;-46
2023/11/08 11:40:38;;;;;;;;;;;;;;;15.49;44.54;100461.81;5089083;28;1067;-45
2023/11/08 11:43:22;;;;;;;;;;;;;;;15.49;44.03;100467.13;5096718;28;1038;-44
2023/11/08 11:45:51;;;;;;;;;;;;;;;15.56;44.87;100473.69;5096709;28;1050;-45
2023/11/08 11:48:17;;;;;;;;;;;;;;;16.70;46.73;100480.34;5096424;28;1050;-45
2023/11/08 11:50:42;;;;;;;;;;;;;;;16.01;47.37;100472.22;5096144;28;1133;-48
2023/11/08 11:53:08;;;;;;;;;;;;;;;15.90;46.64;100481.78;5096325;28;1987;-44
2023/11/08 11:55:33;;;;;;;;;;;;;;;15.79;45.86;100471.13;5090257;28;1360;-48
2023/11/08 11:58:00;;;;;;;;;;;;;;;15.70;45.43;100462.06;5086831;28;1407;-43
2023/11/08 12:00:26;;;;;;;;;;;;;;;15.68;45.21;100466.66;5093066;28;1379;-45
2023/11/08 12:02:52;;;;;;;;;;;;;;;15.58;45.42;100455.84;5089711;28;1355;-43
2023/11/08 12:05:17;;;;;;;;;;;;;;;16.44;46.74;100456.63;5095832;28;1411;-46
2023/11/08 12:07:43;;;;;;;;;;;;;;;16.07;46.50;100457.63;5095708;28;1236;-42
2023/11/08 12:10:10;;;;;;;;;;;;;;;15.91;45.99;100456.13;5088935;28;1511;-44
2023/11/08 12:12:38;;;;;;;;;;;;;;;15.79;45.59;100463.19;5095480;28;1070;-46
2023/11/08 12:15:22;;;;;;;;;;;;;;;15.70;45.78;100453.28;5090534;28;1917;-47
2023/11/08 12:17:51;;;;;;;;;;;;;;;15.74;45.17;100460.03;5090382;28;1465;-47
2023/11/08 12:20:20;;;;;;;;;;;;;;;15.73;44.69;100456.50;5089002;28;1108;-46
2023/11/08 12:22:50;;;;;;;;;;;;;;;15.64;44.83;100463.38;5092228;28;1340;-46
2023/11/08 12:25:22;;;;;;;;;;;;;;;15.61;44.68;100470.69;5088716;28;1372;-45
2023/11/08 12:27:49;;;;;;;;;;;;;;;16.07;45.91;100470.91;5099724;28;1307;-50
2023/11/08 12:30:14;;;;;;;;;;;;;;;16.56;46.66;100487.56;5099712;28;1296;-46
2023/11/08 12:32:40;;;;;;;;;;;;;;;16.07;47.08;100490.34;5099020;28;1292;-45
2023/11/08 12:35:05;;;;;;;;;;;;;;;15.89;46.04;100496.03;5098376;28;1981;-44
2023/11/08 12:37:31;;;;;;;;;;;;;;;15.83;45.88;100491.16;5099344;28;1046;-44
2023/11/08 12:40:15;;;;;;;;;;;;;;;15.81;45.47;100493.09;5099223;28;1131;-46
2023/11/08 12:42:40;;;;;;;;;;;;;;;15.75;44.97;100491.72;5099306;28;1046;-42
2023/11/08 12:45:07;;;;;;;;;;;;;;;15.76;44.41;100498.75;5094646;28;1170;-42